sensor_id;sensor_type;location;lat;lon;timestamp;P1;durP1;ratioP1;P2;durP2;ratioP2
67997;SDS011;54773;53.388;-1.504;2022-07-17T00:01:38;15.23;;;8.35;;
67997;SDS011;54773;53.388;-1.504;2022-07-17T00:04:04;15.18;;;8.25;;
67997;SDS011;54773;53.388;-1.504;2022-07-17T00:06:30;12.90;;;7.72;;
67997;SDS011;54773;53.388;-1.504;2022-07-17T00:08:55;13.55;;;7.35;;
67997;SDS011;54773;53.388;-1.504;2022-07-17T00:11:21;12.63;;;7.85;;
67997;SDS011;54773;53.388;-1.504;2022-07-17T00:13:46;12.45;;;7.28;;
67997;SDS011;54773;53.388;-1.504;2022-07-17T00:16:12;13.23;;;7.72;;
67997;SDS011;54773;53.388;-1.504;2022-07-17T00:18:38;14.82;;;7.65;;
67997;SDS011;54773;53.388;-1.504;2022-07-17T00:21:04;13.18;;;7.72;;
67997;SDS011;54773;53.388;-1.504;2022-07-17T00:23:30;14.55;;;8.27;;
67997;SDS011;54773;53.388;-1.504;2022-07-17T00:25:56;13.52;;;8.65;;
67997;SDS011;54773;53.388;-1.504;2022-07-17T00:28:21;13.52;;;7.97;;
67997;SDS011;54773;53.388;-1.504;2022-07-17T00:30:47;14.05;;;8.35;;
67997;SDS011;54773;53.388;-1.504;2022-07-17T00:33:12;14.43;;;8.48;;
67997;SDS011;54773;53.388;-1.504;2022-07-17T00:35:38;12.93;;;8.00;;
67997;SDS011;54773;53.388;-1.504;2022-07-17T00:38:03;13.80;;;8.52;;
67997;SDS011;54773;53.388;-1.504;2022-07-17T00:40:29;14.98;;;8.93;;
67997;SDS011;54773;53.388;-1.504;2022-07-17T00:42:55;16.48;;;8.63;;
67997;SDS011;54773;53.388;-1.504;2022-07-17T00:45:21;16.48;;;8.93;;
67997;SDS011;54773;53.388;-1.504;2022-07-17T00:50:15;19.83;;;12.05;;
67997;SDS011;54773;53.388;-1.504;2022-07-17T00:52:44;15.35;;;10.32;;
67997;SDS011;54773;53.388;-1.504;2022-07-17T00:55:11;14.90;;;8.27;;
67997;SDS011;54773;53.388;-1.504;2022-07-17T00:57:39;15.90;;;8.90;;
67997;SDS011;54773;53.388;-1.504;2022-07-17T01:00:10;14.18;;;8.48;;
67997;SDS011;54773;53.388;-1.504;2022-07-17T01:02:40;13.63;;;8.40;;
67997;SDS011;54773;53.388;-1.504;2022-07-17T01:05:05;14.07;;;8.85;;
67997;SDS011;54773;53.388;-1.504;2022-07-17T01:07:34;14.65;;;8.75;;
67997;SDS011;54773;53.388;-1.504;2022-07-17T01:10:00;16.42;;;9.40;;
67997;SDS011;54773;53.388;-1.504;2022-07-17T01:12:26;15.73;;;9.43;;
67997;SDS011;54773;53.388;-1.504;2022-07-17T01:14:52;14.48;;;9.88;;
67997;SDS011;54773;53.388;-1.504;2022-07-17T01:17:18;15.77;;;10.05;;
67997;SDS011;54773;53.388;-1.504;2022-07-17T01:19:44;16.65;;;10.15;;
67997;SDS011;54773;53.388;-1.504;2022-07-17T01:22:10;15.38;;;10.07;;
67997;SDS011;54773;53.388;-1.504;2022-07-17T01:24:39;16.38;;;10.52;;
67997;SDS011;54773;53.388;-1.504;2022-07-17T01:27:05;16.27;;;10.50;;
67997;SDS011;54773;53.388;-1.504;2022-07-17T01:29:31;18.13;;;11.20;;
67997;SDS011;54773;53.388;-1.504;2022-07-17T01:31:57;16.52;;;11.18;;
67997;SDS011;54773;53.388;-1.504;2022-07-17T01:34:23;15.60;;;9.73;;
67997;SDS011;54773;53.388;-1.504;2022-07-17T01:36:48;18.23;;;9.85;;
67997;SDS011;54773;53.388;-1.504;2022-07-17T01:39:14;15.20;;;9.07;;
67997;SDS011;54773;53.388;-1.504;2022-07-17T01:41:39;13.20;;;8.48;;
67997;SDS011;54773;53.388;-1.504;2022-07-17T01:44:06;13.93;;;9.07;;
67997;SDS011;54773;53.388;-1.504;2022-07-17T01:46:32;16.98;;;9.98;;
67997;SDS011;54773;53.388;-1.504;2022-07-17T01:48:58;15.32;;;9.50;;
67997;SDS011;54773;53.388;-1.504;2022-07-17T01:51:26;14.90;;;9.48;;
67997;SDS011;54773;53.388;-1.504;2022-07-17T01:53:52;16.63;;;10.00;;
67997;SDS011;54773;53.388;-1.504;2022-07-17T01:56:19;14.38;;;9.18;;
67997;SDS011;54773;53.388;-1.504;2022-07-17T01:58:45;19.05;;;9.88;;
67997;SDS011;54773;53.388;-1.504;2022-07-17T02:01:10;16.60;;;9.88;;
67997;SDS011;54773;53.388;-1.504;2022-07-17T02:03:37;15.30;;;9.30;;
67997;SDS011;54773;53.388;-1.504;2022-07-17T02:06:03;16.15;;;10.68;;
67997;SDS011;54773;53.388;-1.504;2022-07-17T02:08:32;13.60;;;9.13;;
67997;SDS011;54773;53.388;-1.504;2022-07-17T02:10:58;16.88;;;10.07;;
67997;SDS011;54773;53.388;-1.504;2022-07-17T02:13:24;15.57;;;9.73;;
67997;SDS011;54773;53.388;-1.504;2022-07-17T02:15:49;15.57;;;10.27;;
67997;SDS011;54773;53.388;-1.504;2022-07-17T02:18:15;15.63;;;9.40;;
67997;SDS011;54773;53.388;-1.504;2022-07-17T02:20:40;17.00;;;10.05;;
67997;SDS011;54773;53.388;-1.504;2022-07-17T02:23:06;17.15;;;9.82;;
67997;SDS011;54773;53.388;-1.504;2022-07-17T02:25:32;16.15;;;9.73;;
67997;SDS011;54773;53.388;-1.504;2022-07-17T02:27:58;16.50;;;9.07;;
67997;SDS011;54773;53.388;-1.504;2022-07-17T02:30:27;18.38;;;9.90;;
67997;SDS011;54773;53.388;-1.504;2022-07-17T02:32:52;15.10;;;9.55;;
67997;SDS011;54773;53.388;-1.504;2022-07-17T02:35:18;17.77;;;10.43;;
67997;SDS011;54773;53.388;-1.504;2022-07-17T02:37:44;17.90;;;10.25;;
67997;SDS011;54773;53.388;-1.504;2022-07-17T02:40:11;19.40;;;10.68;;
67997;SDS011;54773;53.388;-1.504;2022-07-17T02:42:37;16.40;;;9.32;;
67997;SDS011;54773;53.388;-1.504;2022-07-17T02:45:05;18.50;;;10.23;;
67997;SDS011;54773;53.388;-1.504;2022-07-17T02:47:32;18.98;;;10.05;;
67997;SDS011;54773;53.388;-1.504;2022-07-17T02:49:59;18.30;;;10.43;;
67997;SDS011;54773;53.388;-1.504;2022-07-17T02:52:30;16.48;;;10.07;;
67997;SDS011;54773;53.388;-1.504;2022-07-17T02:55:01;16.92;;;10.32;;
67997;SDS011;54773;53.388;-1.504;2022-07-17T02:57:32;16.67;;;10.10;;
67997;SDS011;54773;53.388;-1.504;2022-07-17T02:59:58;18.60;;;9.85;;
67997;SDS011;54773;53.388;-1.504;2022-07-17T03:02:24;17.33;;;10.48;;
67997;SDS011;54773;53.388;-1.504;2022-07-17T03:04:49;16.42;;;9.80;;
67997;SDS011;54773;53.388;-1.504;2022-07-17T03:07:15;14.88;;;9.52;;
67997;SDS011;54773;53.388;-1.504;2022-07-17T03:09:41;16.25;;;9.68;;
67997;SDS011;54773;53.388;-1.504;2022-07-17T03:12:08;15.70;;;9.32;;
67997;SDS011;54773;53.388;-1.504;2022-07-17T03:14:33;14.57;;;9.25;;
67997;SDS011;54773;53.388;-1.504;2022-07-17T03:16:59;15.35;;;8.98;;
67997;SDS011;54773;53.388;-1.504;2022-07-17T03:19:24;14.57;;;9.10;;
67997;SDS011;54773;53.388;-1.504;2022-07-17T03:21:50;16.60;;;8.48;;
67997;SDS011;54773;53.388;-1.504;2022-07-17T03:24:16;15.32;;;9.02;;
67997;SDS011;54773;53.388;-1.504;2022-07-17T03:26:42;14.75;;;8.30;;
67997;SDS011;54773;53.388;-1.504;2022-07-17T03:29:08;13.43;;;7.95;;
67997;SDS011;54773;53.388;-1.504;2022-07-17T03:31:34;13.32;;;7.32;;
67997;SDS011;54773;53.388;-1.504;2022-07-17T03:33:59;12.98;;;7.65;;
67997;SDS011;54773;53.388;-1.504;2022-07-17T03:36:25;11.40;;;6.88;;
67997;SDS011;54773;53.388;-1.504;2022-07-17T03:38:50;10.32;;;6.55;;
67997;SDS011;54773;53.388;-1.504;2022-07-17T03:41:16;11.02;;;6.13;;
67997;SDS011;54773;53.388;-1.504;2022-07-17T03:43:41;9.93;;;6.10;;
67997;SDS011;54773;53.388;-1.504;2022-07-17T03:46:08;10.70;;;6.43;;
67997;SDS011;54773;53.388;-1.504;2022-07-17T03:48:34;10.30;;;6.63;;
67997;SDS011;54773;53.388;-1.504;2022-07-17T03:51:01;12.57;;;7.45;;
67997;SDS011;54773;53.388;-1.504;2022-07-17T03:53:29;13.55;;;7.38;;
67997;SDS011;54773;53.388;-1.504;2022-07-17T03:55:55;12.85;;;7.63;;
67997;SDS011;54773;53.388;-1.504;2022-07-17T03:58:21;15.73;;;8.63;;
67997;SDS011;54773;53.388;-1.504;2022-07-17T04:00:46;14.10;;;8.48;;
67997;SDS011;54773;53.388;-1.504;2022-07-17T04:03:12;12.50;;;8.63;;
67997;SDS011;54773;53.388;-1.504;2022-07-17T04:05:38;13.05;;;8.70;;
67997;SDS011;54773;53.388;-1.504;2022-07-17T04:08:04;13.70;;;8.10;;
67997;SDS011;54773;53.388;-1.504;2022-07-17T04:10:33;15.27;;;9.52;;
67997;SDS011;54773;53.388;-1.504;2022-07-17T04:13:00;15.77;;;9.50;;
67997;SDS011;54773;53.388;-1.504;2022-07-17T04:15:28;15.50;;;9.13;;
67997;SDS011;54773;53.388;-1.504;2022-07-17T04:18:17;21.33;;;10.80;;
67997;SDS011;54773;53.388;-1.504;2022-07-17T04:20:46;17.92;;;10.07;;
67997;SDS011;54773;53.388;-1.504;2022-07-17T04:23:13;16.40;;;9.43;;
67997;SDS011;54773;53.388;-1.504;2022-07-17T04:25:39;15.90;;;8.70;;
67997;SDS011;54773;53.388;-1.504;2022-07-17T04:28:05;13.90;;;7.57;;
67997;SDS011;54773;53.388;-1.504;2022-07-17T04:30:30;13.77;;;8.25;;
67997;SDS011;54773;53.388;-1.504;2022-07-17T04:32:56;13.35;;;8.30;;
67997;SDS011;54773;53.388;-1.504;2022-07-17T04:35:21;12.25;;;7.93;;
67997;SDS011;54773;53.388;-1.504;2022-07-17T04:37:47;13.60;;;8.52;;
67997;SDS011;54773;53.388;-1.504;2022-07-17T04:40:12;11.98;;;7.60;;
67997;SDS011;54773;53.388;-1.504;2022-07-17T04:42:38;11.85;;;7.93;;
67997;SDS011;54773;53.388;-1.504;2022-07-17T04:45:04;15.75;;;8.52;;
67997;SDS011;54773;53.388;-1.504;2022-07-17T04:47:30;12.63;;;7.78;;
67997;SDS011;54773;53.388;-1.504;2022-07-17T04:49:56;13.30;;;7.55;;
67997;SDS011;54773;53.388;-1.504;2022-07-17T04:52:22;14.02;;;7.90;;
67997;SDS011;54773;53.388;-1.504;2022-07-17T04:54:47;13.40;;;7.90;;
67997;SDS011;54773;53.388;-1.504;2022-07-17T04:57:13;13.23;;;8.20;;
67997;SDS011;54773;53.388;-1.504;2022-07-17T04:59:39;13.98;;;8.25;;
67997;SDS011;54773;53.388;-1.504;2022-07-17T05:02:04;12.40;;;7.78;;
67997;SDS011;54773;53.388;-1.504;2022-07-17T05:04:30;13.73;;;8.30;;
67997;SDS011;54773;53.388;-1.504;2022-07-17T05:06:55;14.35;;;8.07;;
67997;SDS011;54773;53.388;-1.504;2022-07-17T05:09:21;14.93;;;8.25;;
67997;SDS011;54773;53.388;-1.504;2022-07-17T05:11:47;12.18;;;7.40;;
67997;SDS011;54773;53.388;-1.504;2022-07-17T05:14:12;12.40;;;7.07;;
67997;SDS011;54773;53.388;-1.504;2022-07-17T05:16:38;12.90;;;7.63;;
67997;SDS011;54773;53.388;-1.504;2022-07-17T05:19:04;12.60;;;7.40;;
67997;SDS011;54773;53.388;-1.504;2022-07-17T05:21:30;13.88;;;8.15;;
67997;SDS011;54773;53.388;-1.504;2022-07-17T05:23:55;14.35;;;7.80;;
67997;SDS011;54773;53.388;-1.504;2022-07-17T05:26:21;11.90;;;7.50;;
67997;SDS011;54773;53.388;-1.504;2022-07-17T05:28:47;14.15;;;8.20;;
67997;SDS011;54773;53.388;-1.504;2022-07-17T05:31:12;15.38;;;8.68;;
67997;SDS011;54773;53.388;-1.504;2022-07-17T05:33:38;12.18;;;7.50;;
67997;SDS011;54773;53.388;-1.504;2022-07-17T05:36:03;11.27;;;7.18;;
67997;SDS011;54773;53.388;-1.504;2022-07-17T05:38:29;11.50;;;7.70;;
67997;SDS011;54773;53.388;-1.504;2022-07-17T05:40:54;12.38;;;7.47;;
67997;SDS011;54773;53.388;-1.504;2022-07-17T05:43:20;12.75;;;7.82;;
67997;SDS011;54773;53.388;-1.504;2022-07-17T05:45:46;12.32;;;8.05;;
67997;SDS011;54773;53.388;-1.504;2022-07-17T05:48:11;13.57;;;7.60;;
67997;SDS011;54773;53.388;-1.504;2022-07-17T05:50:37;12.55;;;7.68;;
67997;SDS011;54773;53.388;-1.504;2022-07-17T05:53:02;12.82;;;7.60;;
67997;SDS011;54773;53.388;-1.504;2022-07-17T05:55:28;12.93;;;7.05;;
67997;SDS011;54773;53.388;-1.504;2022-07-17T05:57:53;12.70;;;7.25;;
67997;SDS011;54773;53.388;-1.504;2022-07-17T06:00:19;12.18;;;7.60;;
67997;SDS011;54773;53.388;-1.504;2022-07-17T06:02:45;12.40;;;7.68;;
67997;SDS011;54773;53.388;-1.504;2022-07-17T06:05:11;11.57;;;7.22;;
67997;SDS011;54773;53.388;-1.504;2022-07-17T06:07:36;12.30;;;7.68;;
67997;SDS011;54773;53.388;-1.504;2022-07-17T06:10:03;10.10;;;7.10;;
67997;SDS011;54773;53.388;-1.504;2022-07-17T06:12:30;12.13;;;7.68;;
67997;SDS011;54773;53.388;-1.504;2022-07-17T06:14:55;13.32;;;8.10;;
67997;SDS011;54773;53.388;-1.504;2022-07-17T06:17:21;10.38;;;6.97;;
67997;SDS011;54773;53.388;-1.504;2022-07-17T06:19:46;11.70;;;7.53;;
67997;SDS011;54773;53.388;-1.504;2022-07-17T06:22:17;11.50;;;7.70;;
67997;SDS011;54773;53.388;-1.504;2022-07-17T06:24:45;12.13;;;7.72;;
67997;SDS011;54773;53.388;-1.504;2022-07-17T06:27:11;12.95;;;8.15;;
67997;SDS011;54773;53.388;-1.504;2022-07-17T06:29:37;13.00;;;8.05;;
67997;SDS011;54773;53.388;-1.504;2022-07-17T06:32:03;14.45;;;8.00;;
67997;SDS011;54773;53.388;-1.504;2022-07-17T06:34:29;12.73;;;7.22;;
67997;SDS011;54773;53.388;-1.504;2022-07-17T06:36:54;12.13;;;7.53;;
67997;SDS011;54773;53.388;-1.504;2022-07-17T06:39:23;12.98;;;7.63;;
67997;SDS011;54773;53.388;-1.504;2022-07-17T06:41:48;12.90;;;7.95;;
67997;SDS011;54773;53.388;-1.504;2022-07-17T06:44:14;11.95;;;7.75;;
67997;SDS011;54773;53.388;-1.504;2022-07-17T06:46:39;11.95;;;7.68;;
67997;SDS011;54773;53.388;-1.504;2022-07-17T06:49:05;12.80;;;7.95;;
67997;SDS011;54773;53.388;-1.504;2022-07-17T06:51:31;12.55;;;7.53;;
67997;SDS011;54773;53.388;-1.504;2022-07-17T06:53:56;10.85;;;6.85;;
67997;SDS011;54773;53.388;-1.504;2022-07-17T06:56:22;12.27;;;7.70;;
67997;SDS011;54773;53.388;-1.504;2022-07-17T06:58:47;13.18;;;7.68;;
67997;SDS011;54773;53.388;-1.504;2022-07-17T07:01:16;11.18;;;7.47;;
67997;SDS011;54773;53.388;-1.504;2022-07-17T07:03:48;11.95;;;6.65;;
67997;SDS011;54773;53.388;-1.504;2022-07-17T07:06:16;10.20;;;6.45;;
67997;SDS011;54773;53.388;-1.504;2022-07-17T07:08:42;9.95;;;6.45;;
67997;SDS011;54773;53.388;-1.504;2022-07-17T07:11:07;12.80;;;6.78;;
67997;SDS011;54773;53.388;-1.504;2022-07-17T07:13:33;8.50;;;5.75;;
67997;SDS011;54773;53.388;-1.504;2022-07-17T07:15:58;12.00;;;7.80;;
67997;SDS011;54773;53.388;-1.504;2022-07-17T07:18:28;10.77;;;6.57;;
67997;SDS011;54773;53.388;-1.504;2022-07-17T07:20:57;10.90;;;7.00;;
67997;SDS011;54773;53.388;-1.504;2022-07-17T07:23:22;11.95;;;7.07;;
67997;SDS011;54773;53.388;-1.504;2022-07-17T07:25:54;12.45;;;7.28;;
67997;SDS011;54773;53.388;-1.504;2022-07-17T07:28:20;11.60;;;6.82;;
67997;SDS011;54773;53.388;-1.504;2022-07-17T07:30:48;11.65;;;7.20;;
67997;SDS011;54773;53.388;-1.504;2022-07-17T07:33:14;12.35;;;7.55;;
67997;SDS011;54773;53.388;-1.504;2022-07-17T07:35:47;12.32;;;7.43;;
67997;SDS011;54773;53.388;-1.504;2022-07-17T07:38:21;10.52;;;6.95;;
67997;SDS011;54773;53.388;-1.504;2022-07-17T07:40:47;12.82;;;7.15;;
67997;SDS011;54773;53.388;-1.504;2022-07-17T07:43:12;10.43;;;6.53;;
67997;SDS011;54773;53.388;-1.504;2022-07-17T07:45:38;10.30;;;6.57;;
67997;SDS011;54773;53.388;-1.504;2022-07-17T07:48:04;10.70;;;7.20;;
67997;SDS011;54773;53.388;-1.504;2022-07-17T07:50:30;10.35;;;6.30;;
67997;SDS011;54773;53.388;-1.504;2022-07-17T07:52:56;10.07;;;6.18;;
67997;SDS011;54773;53.388;-1.504;2022-07-17T07:55:21;11.48;;;6.57;;
67997;SDS011;54773;53.388;-1.504;2022-07-17T07:57:47;11.02;;;5.97;;
67997;SDS011;54773;53.388;-1.504;2022-07-17T08:00:14;10.65;;;6.60;;
67997;SDS011;54773;53.388;-1.504;2022-07-17T08:02:43;9.82;;;6.20;;
67997;SDS011;54773;53.388;-1.504;2022-07-17T08:05:08;9.13;;;6.07;;
67997;SDS011;54773;53.388;-1.504;2022-07-17T08:07:34;10.13;;;6.70;;
67997;SDS011;54773;53.388;-1.504;2022-07-17T08:10:00;11.27;;;6.97;;
67997;SDS011;54773;53.388;-1.504;2022-07-17T08:12:26;9.10;;;5.88;;
67997;SDS011;54773;53.388;-1.504;2022-07-17T08:14:51;8.10;;;4.80;;
67997;SDS011;54773;53.388;-1.504;2022-07-17T08:17:17;9.98;;;4.75;;
67997;SDS011;54773;53.388;-1.504;2022-07-17T08:19:44;7.80;;;4.50;;
67997;SDS011;54773;53.388;-1.504;2022-07-17T08:22:10;6.93;;;4.40;;
67997;SDS011;54773;53.388;-1.504;2022-07-17T08:24:37;6.95;;;4.30;;
67997;SDS011;54773;53.388;-1.504;2022-07-17T08:27:03;7.22;;;4.80;;
67997;SDS011;54773;53.388;-1.504;2022-07-17T08:29:28;7.85;;;4.80;;
67997;SDS011;54773;53.388;-1.504;2022-07-17T08:31:54;8.52;;;4.93;;
67997;SDS011;54773;53.388;-1.504;2022-07-17T08:34:20;8.25;;;5.05;;
67997;SDS011;54773;53.388;-1.504;2022-07-17T08:36:46;7.90;;;4.88;;
67997;SDS011;54773;53.388;-1.504;2022-07-17T08:39:12;7.03;;;4.50;;
67997;SDS011;54773;53.388;-1.504;2022-07-17T08:41:41;8.32;;;4.47;;
67997;SDS011;54773;53.388;-1.504;2022-07-17T08:44:09;7.80;;;4.70;;
67997;SDS011;54773;53.388;-1.504;2022-07-17T08:46:35;8.93;;;5.03;;
67997;SDS011;54773;53.388;-1.504;2022-07-17T08:49:02;6.85;;;4.60;;
67997;SDS011;54773;53.388;-1.504;2022-07-17T08:51:29;7.05;;;4.57;;
67997;SDS011;54773;53.388;-1.504;2022-07-17T08:53:55;6.38;;;4.38;;
67997;SDS011;54773;53.388;-1.504;2022-07-17T08:56:22;7.10;;;4.30;;
67997;SDS011;54773;53.388;-1.504;2022-07-17T08:58:48;7.20;;;4.82;;
67997;SDS011;54773;53.388;-1.504;2022-07-17T09:01:14;7.13;;;4.22;;
67997;SDS011;54773;53.388;-1.504;2022-07-17T09:03:41;8.15;;;4.22;;
67997;SDS011;54773;53.388;-1.504;2022-07-17T09:06:17;8.32;;;4.80;;
67997;SDS011;54773;53.388;-1.504;2022-07-17T09:08:44;7.65;;;4.40;;
67997;SDS011;54773;53.388;-1.504;2022-07-17T09:11:13;6.68;;;4.32;;
67997;SDS011;54773;53.388;-1.504;2022-07-17T09:13:42;7.45;;;4.70;;
67997;SDS011;54773;53.388;-1.504;2022-07-17T09:16:16;7.18;;;4.40;;
67997;SDS011;54773;53.388;-1.504;2022-07-17T09:18:42;7.07;;;3.80;;
67997;SDS011;54773;53.388;-1.504;2022-07-17T09:21:08;6.53;;;4.28;;
67997;SDS011;54773;53.388;-1.504;2022-07-17T09:23:45;6.65;;;4.05;;
67997;SDS011;54773;53.388;-1.504;2022-07-17T09:26:13;6.45;;;3.85;;
67997;SDS011;54773;53.388;-1.504;2022-07-17T09:28:44;6.53;;;4.07;;
67997;SDS011;54773;53.388;-1.504;2022-07-17T09:31:10;7.43;;;4.13;;
67997;SDS011;54773;53.388;-1.504;2022-07-17T09:33:37;7.30;;;4.40;;
67997;SDS011;54773;53.388;-1.504;2022-07-17T09:36:07;8.02;;;5.00;;
67997;SDS011;54773;53.388;-1.504;2022-07-17T09:38:54;6.22;;;4.30;;
67997;SDS011;54773;53.388;-1.504;2022-07-17T09:41:25;7.93;;;4.65;;
67997;SDS011;54773;53.388;-1.504;2022-07-17T09:43:53;6.97;;;4.60;;
67997;SDS011;54773;53.388;-1.504;2022-07-17T09:46:24;6.55;;;4.43;;
67997;SDS011;54773;53.388;-1.504;2022-07-17T09:48:53;7.07;;;4.50;;
67997;SDS011;54773;53.388;-1.504;2022-07-17T09:51:22;7.07;;;4.60;;
67997;SDS011;54773;53.388;-1.504;2022-07-17T09:53:53;8.50;;;4.97;;
67997;SDS011;54773;53.388;-1.504;2022-07-17T09:56:21;10.73;;;5.32;;
67997;SDS011;54773;53.388;-1.504;2022-07-17T09:58:51;7.20;;;4.68;;
67997;SDS011;54773;53.388;-1.504;2022-07-17T10:01:18;8.82;;;4.93;;
67997;SDS011;54773;53.388;-1.504;2022-07-17T10:03:44;7.60;;;4.78;;
67997;SDS011;54773;53.388;-1.504;2022-07-17T10:06:10;9.13;;;4.68;;
67997;SDS011;54773;53.388;-1.504;2022-07-17T10:08:38;8.38;;;4.68;;
67997;SDS011;54773;53.388;-1.504;2022-07-17T10:11:05;6.47;;;4.50;;
67997;SDS011;54773;53.388;-1.504;2022-07-17T10:13:41;6.45;;;4.63;;
67997;SDS011;54773;53.388;-1.504;2022-07-17T10:16:10;7.80;;;4.75;;
67997;SDS011;54773;53.388;-1.504;2022-07-17T10:18:43;7.13;;;4.55;;
67997;SDS011;54773;53.388;-1.504;2022-07-17T10:21:16;8.47;;;5.07;;
67997;SDS011;54773;53.388;-1.504;2022-07-17T10:23:48;7.07;;;4.95;;
67997;SDS011;54773;53.388;-1.504;2022-07-17T10:29:26;10.63;;;4.70;;
67997;SDS011;54773;53.388;-1.504;2022-07-17T10:31:52;6.65;;;4.50;;
67997;SDS011;54773;53.388;-1.504;2022-07-17T10:34:18;8.18;;;4.88;;
67997;SDS011;54773;53.388;-1.504;2022-07-17T10:37:02;7.65;;;5.05;;
67997;SDS011;54773;53.388;-1.504;2022-07-17T10:39:28;9.18;;;5.13;;
67997;SDS011;54773;53.388;-1.504;2022-07-17T10:42:03;8.23;;;5.40;;
67997;SDS011;54773;53.388;-1.504;2022-07-17T10:44:29;8.07;;;5.65;;
67997;SDS011;54773;53.388;-1.504;2022-07-17T10:46:57;7.93;;;5.35;;
67997;SDS011;54773;53.388;-1.504;2022-07-17T10:49:24;8.00;;;4.95;;
67997;SDS011;54773;53.388;-1.504;2022-07-17T10:51:51;9.30;;;5.60;;
67997;SDS011;54773;53.388;-1.504;2022-07-17T10:54:18;8.75;;;5.85;;
67997;SDS011;54773;53.388;-1.504;2022-07-17T10:56:44;9.88;;;5.60;;
67997;SDS011;54773;53.388;-1.504;2022-07-17T10:59:10;8.63;;;5.22;;
67997;SDS011;54773;53.388;-1.504;2022-07-17T11:01:37;9.45;;;5.13;;
67997;SDS011;54773;53.388;-1.504;2022-07-17T11:04:03;8.60;;;5.40;;
67997;SDS011;54773;53.388;-1.504;2022-07-17T11:06:32;7.68;;;5.28;;
67997;SDS011;54773;53.388;-1.504;2022-07-17T11:09:03;7.35;;;5.00;;
67997;SDS011;54773;53.388;-1.504;2022-07-17T11:16:38;8.27;;;5.38;;
67997;SDS011;54773;53.388;-1.504;2022-07-17T11:19:21;8.73;;;4.70;;
67997;SDS011;54773;53.388;-1.504;2022-07-17T11:21:50;7.30;;;5.00;;
67997;SDS011;54773;53.388;-1.504;2022-07-17T11:24:15;7.70;;;5.20;;
67997;SDS011;54773;53.388;-1.504;2022-07-17T11:26:44;7.30;;;4.82;;
67997;SDS011;54773;53.388;-1.504;2022-07-17T11:29:10;8.20;;;5.03;;
67997;SDS011;54773;53.388;-1.504;2022-07-17T11:31:39;7.35;;;5.30;;
67997;SDS011;54773;53.388;-1.504;2022-07-17T11:34:09;7.47;;;5.13;;
67997;SDS011;54773;53.388;-1.504;2022-07-17T11:39:25;10.02;;;6.18;;
67997;SDS011;54773;53.388;-1.504;2022-07-17T11:41:51;9.32;;;6.00;;
67997;SDS011;54773;53.388;-1.504;2022-07-17T11:44:21;10.65;;;7.15;;
67997;SDS011;54773;53.388;-1.504;2022-07-17T11:46:52;10.32;;;5.80;;
67997;SDS011;54773;53.388;-1.504;2022-07-17T11:49:28;10.70;;;6.47;;
67997;SDS011;54773;53.388;-1.504;2022-07-17T11:52:05;7.05;;;5.30;;
67997;SDS011;54773;53.388;-1.504;2022-07-17T11:57:14;8.20;;;5.15;;
67997;SDS011;54773;53.388;-1.504;2022-07-17T11:59:40;8.75;;;5.30;;
67997;SDS011;54773;53.388;-1.504;2022-07-17T12:02:10;8.55;;;5.35;;
67997;SDS011;54773;53.388;-1.504;2022-07-17T12:04:50;7.38;;;5.38;;
67997;SDS011;54773;53.388;-1.504;2022-07-17T12:07:20;8.52;;;5.75;;
67997;SDS011;54773;53.388;-1.504;2022-07-17T12:09:49;8.65;;;5.15;;
67997;SDS011;54773;53.388;-1.504;2022-07-17T12:12:22;7.40;;;4.93;;
67997;SDS011;54773;53.388;-1.504;2022-07-17T12:14:55;8.18;;;5.15;;
67997;SDS011;54773;53.388;-1.504;2022-07-17T12:17:36;6.82;;;4.65;;
67997;SDS011;54773;53.388;-1.504;2022-07-17T12:20:06;7.20;;;5.20;;
67997;SDS011;54773;53.388;-1.504;2022-07-17T12:22:43;8.52;;;4.82;;
67997;SDS011;54773;53.388;-1.504;2022-07-17T12:25:25;6.50;;;4.07;;
67997;SDS011;54773;53.388;-1.504;2022-07-17T12:27:52;7.00;;;4.25;;
67997;SDS011;54773;53.388;-1.504;2022-07-17T12:30:18;8.07;;;4.60;;
67997;SDS011;54773;53.388;-1.504;2022-07-17T12:32:44;6.80;;;4.00;;
67997;SDS011;54773;53.388;-1.504;2022-07-17T12:35:10;8.25;;;4.40;;
67997;SDS011;54773;53.388;-1.504;2022-07-17T12:37:35;6.43;;;4.13;;
67997;SDS011;54773;53.388;-1.504;2022-07-17T12:40:02;5.38;;;3.88;;
67997;SDS011;54773;53.388;-1.504;2022-07-17T12:42:28;8.40;;;4.32;;
67997;SDS011;54773;53.388;-1.504;2022-07-17T12:44:54;7.75;;;4.07;;
67997;SDS011;54773;53.388;-1.504;2022-07-17T12:47:22;8.02;;;4.03;;
67997;SDS011;54773;53.388;-1.504;2022-07-17T12:49:48;8.15;;;3.70;;
67997;SDS011;54773;53.388;-1.504;2022-07-17T12:52:14;6.80;;;3.70;;
67997;SDS011;54773;53.388;-1.504;2022-07-17T12:54:40;6.00;;;3.92;;
67997;SDS011;54773;53.388;-1.504;2022-07-17T12:57:06;6.07;;;3.45;;
67997;SDS011;54773;53.388;-1.504;2022-07-17T12:59:32;6.68;;;3.97;;
67997;SDS011;54773;53.388;-1.504;2022-07-17T13:01:58;6.10;;;4.03;;
67997;SDS011;54773;53.388;-1.504;2022-07-17T13:04:24;5.80;;;3.58;;
67997;SDS011;54773;53.388;-1.504;2022-07-17T13:06:49;6.03;;;3.58;;
67997;SDS011;54773;53.388;-1.504;2022-07-17T13:09:15;6.45;;;4.07;;
67997;SDS011;54773;53.388;-1.504;2022-07-17T13:11:42;7.30;;;3.38;;
67997;SDS011;54773;53.388;-1.504;2022-07-17T13:14:08;6.78;;;3.70;;
67997;SDS011;54773;53.388;-1.504;2022-07-17T13:16:40;5.55;;;3.95;;
67997;SDS011;54773;53.388;-1.504;2022-07-17T13:19:09;6.97;;;3.50;;
67997;SDS011;54773;53.388;-1.504;2022-07-17T13:21:38;7.60;;;4.30;;
67997;SDS011;54773;53.388;-1.504;2022-07-17T13:24:05;9.45;;;4.05;;
67997;SDS011;54773;53.388;-1.504;2022-07-17T13:26:31;7.72;;;3.95;;
67997;SDS011;54773;53.388;-1.504;2022-07-17T13:28:57;5.97;;;3.80;;
67997;SDS011;54773;53.388;-1.504;2022-07-17T13:31:22;7.40;;;4.22;;
67997;SDS011;54773;53.388;-1.504;2022-07-17T13:33:49;8.50;;;4.40;;
67997;SDS011;54773;53.388;-1.504;2022-07-17T13:36:15;7.05;;;4.28;;
67997;SDS011;54773;53.388;-1.504;2022-07-17T13:38:40;8.88;;;4.22;;
67997;SDS011;54773;53.388;-1.504;2022-07-17T13:41:07;6.88;;;4.18;;
67997;SDS011;54773;53.388;-1.504;2022-07-17T13:43:33;7.38;;;4.55;;
67997;SDS011;54773;53.388;-1.504;2022-07-17T13:45:59;6.68;;;3.90;;
67997;SDS011;54773;53.388;-1.504;2022-07-17T13:48:24;6.80;;;4.20;;
67997;SDS011;54773;53.388;-1.504;2022-07-17T13:50:51;6.18;;;4.10;;
67997;SDS011;54773;53.388;-1.504;2022-07-17T13:53:16;6.68;;;4.05;;
67997;SDS011;54773;53.388;-1.504;2022-07-17T13:55:42;7.28;;;4.32;;
67997;SDS011;54773;53.388;-1.504;2022-07-17T13:58:08;5.97;;;4.28;;
67997;SDS011;54773;53.388;-1.504;2022-07-17T14:00:37;7.55;;;4.60;;
67997;SDS011;54773;53.388;-1.504;2022-07-17T14:03:03;8.70;;;4.20;;
67997;SDS011;54773;53.388;-1.504;2022-07-17T14:05:29;6.03;;;4.28;;
67997;SDS011;54773;53.388;-1.504;2022-07-17T14:07:54;7.45;;;4.50;;
67997;SDS011;54773;53.388;-1.504;2022-07-17T14:10:20;6.57;;;4.10;;
67997;SDS011;54773;53.388;-1.504;2022-07-17T14:12:46;8.00;;;3.92;;
67997;SDS011;54773;53.388;-1.504;2022-07-17T14:15:11;7.30;;;4.15;;
67997;SDS011;54773;53.388;-1.504;2022-07-17T14:17:38;8.18;;;4.30;;
67997;SDS011;54773;53.388;-1.504;2022-07-17T14:20:04;8.45;;;3.85;;
67997;SDS011;54773;53.388;-1.504;2022-07-17T14:22:37;6.30;;;4.00;;
67997;SDS011;54773;53.388;-1.504;2022-07-17T14:25:03;7.22;;;3.95;;
67997;SDS011;54773;53.388;-1.504;2022-07-17T14:27:33;6.00;;;3.97;;
67997;SDS011;54773;53.388;-1.504;2022-07-17T14:30:01;8.32;;;4.20;;
67997;SDS011;54773;53.388;-1.504;2022-07-17T14:32:27;8.15;;;4.45;;
67997;SDS011;54773;53.388;-1.504;2022-07-17T14:34:56;5.95;;;4.00;;
67997;SDS011;54773;53.388;-1.504;2022-07-17T14:37:22;7.60;;;4.00;;
67997;SDS011;54773;53.388;-1.504;2022-07-17T14:39:47;8.63;;;5.85;;
67997;SDS011;54773;53.388;-1.504;2022-07-17T14:42:13;7.18;;;4.75;;